sensor_id;sensor_type;location;lat;lon;timestamp;pressure;altitude;pressure_sealevel;temperature;humidity
6668;BME280;3370;47.712;9.082;2022-07-29T00:01:00;96944.34;;;18.86;86.88
6668;BME280;3370;47.712;9.082;2022-07-29T00:03:26;96943.50;;;18.97;85.96
6668;BME280;3370;47.712;9.082;2022-07-29T00:05:52;96945.97;;;18.99;85.61
6668;BME280;3370;47.712;9.082;2022-07-29T00:08:19;96945.28;;;18.96;85.36
6668;BME280;3370;47.712;9.082;2022-07-29T00:10:45;96940.41;;;18.92;84.97
6668;BME280;3370;47.712;9.082;2022-07-29T00:13:11;96939.13;;;18.86;85.15
6668;BME280;3370;47.712;9.082;2022-07-29T00:15:37;96933.81;;;18.88;84.39
6668;BME280;3370;47.712;9.082;2022-07-29T00:18:03;96925.28;;;18.86;84.49
6668;BME280;3370;47.712;9.082;2022-07-29T00:20:29;96934.38;;;18.91;84.38
6668;BME280;3370;47.712;9.082;2022-07-29T00:22:55;96937.41;;;19.08;83.84
6668;BME280;3370;47.712;9.082;2022-07-29T00:25:21;96934.56;;;19.11;83.07
6668;BME280;3370;47.712;9.082;2022-07-29T00:27:47;96919.16;;;19.08;83.90
6668;BME280;3370;47.712;9.082;2022-07-29T00:30:13;96921.19;;;19.04;84.05
6668;BME280;3370;47.712;9.082;2022-07-29T00:32:38;96921.38;;;18.91;85.03
6668;BME280;3370;47.712;9.082;2022-07-29T00:35:05;96919.88;;;18.66;86.20
6668;BME280;3370;47.712;9.082;2022-07-29T00:37:51;96917.03;;;18.58;87.12
6668;BME280;3370;47.712;9.082;2022-07-29T00:40:17;96913.84;;;18.54;87.82
6668;BME280;3370;47.712;9.082;2022-07-29T00:42:49;96905.56;;;18.61;86.61
6668;BME280;3370;47.712;9.082;2022-07-29T00:45:16;96907.19;;;18.62;87.23
6668;BME280;3370;47.712;9.082;2022-07-29T00:47:43;96914.06;;;18.63;86.75
6668;BME280;3370;47.712;9.082;2022-07-29T00:50:11;96909.09;;;18.59;87.60
6668;BME280;3370;47.712;9.082;2022-07-29T00:52:40;96903.66;;;18.63;87.59
6668;BME280;3370;47.712;9.082;2022-07-29T00:55:09;96904.16;;;18.56;87.55
6668;BME280;3370;47.712;9.082;2022-07-29T00:57:36;96901.09;;;18.51;88.35
6668;BME280;3370;47.712;9.082;2022-07-29T01:00:08;96895.41;;;18.46;89.24
6668;BME280;3370;47.712;9.082;2022-07-29T01:02:35;96902.25;;;18.47;89.26
6668;BME280;3370;47.712;9.082;2022-07-29T01:05:03;96902.50;;;18.55;88.55
6668;BME280;3370;47.712;9.082;2022-07-29T01:07:33;96903.13;;;18.48;89.30
6668;BME280;3370;47.712;9.082;2022-07-29T01:10:02;96897.78;;;18.49;88.68
6668;BME280;3370;47.712;9.082;2022-07-29T01:12:29;96894.34;;;18.49;88.33
6668;BME280;3370;47.712;9.082;2022-07-29T01:15:00;96897.31;;;18.44;88.29
6668;BME280;3370;47.712;9.082;2022-07-29T01:17:44;96899.81;;;18.46;88.14
6668;BME280;3370;47.712;9.082;2022-07-29T01:20:37;96885.50;;;18.40;88.67
6668;BME280;3370;47.712;9.082;2022-07-29T01:29:38;96887.25;;;18.39;88.35
6668;BME280;3370;47.712;9.082;2022-07-29T01:32:21;96884.94;;;18.36;88.25
6668;BME280;3370;47.712;9.082;2022-07-29T01:35:18;96881.97;;;18.30;88.79
6668;BME280;3370;47.712;9.082;2022-07-29T01:38:16;96881.72;;;18.33;87.87
6668;BME280;3370;47.712;9.082;2022-07-29T01:41:07;96872.59;;;18.27;88.74
6668;BME280;3370;47.712;9.082;2022-07-29T01:44:12;96864.69;;;18.29;88.19
6668;BME280;3370;47.712;9.082;2022-07-29T01:46:44;96863.75;;;18.30;88.31
6668;BME280;3370;47.712;9.082;2022-07-29T01:49:20;96859.25;;;18.32;88.36
6668;BME280;3370;47.712;9.082;2022-07-29T01:51:59;96855.94;;;18.30;87.96
6668;BME280;3370;47.712;9.082;2022-07-29T01:54:51;96863.97;;;18.27;88.94
6668;BME280;3370;47.712;9.082;2022-07-29T01:57:20;96860.78;;;18.23;89.48
6668;BME280;3370;47.712;9.082;2022-07-29T01:59:47;96866.81;;;18.24;89.02
6668;BME280;3370;47.712;9.082;2022-07-29T02:02:18;96870.47;;;18.32;88.61
6668;BME280;3370;47.712;9.082;2022-07-29T02:04:47;96872.03;;;18.35;87.64
6668;BME280;3370;47.712;9.082;2022-07-29T02:07:19;96861.34;;;18.38;87.46
6668;BME280;3370;47.712;9.082;2022-07-29T02:09:46;96875.34;;;18.26;88.23
6668;BME280;3370;47.712;9.082;2022-07-29T02:12:15;96866.84;;;18.12;89.53
6668;BME280;3370;47.712;9.082;2022-07-29T02:14:47;96863.69;;;17.97;90.21
6668;BME280;3370;47.712;9.082;2022-07-29T02:17:19;96867.34;;;17.95;90.69
6668;BME280;3370;47.712;9.082;2022-07-29T02:19:47;96869.97;;;17.95;90.74
6668;BME280;3370;47.712;9.082;2022-07-29T02:22:14;96863.31;;;17.91;90.86
6668;BME280;3370;47.712;9.082;2022-07-29T02:24:42;96869.00;;;17.96;90.64
6668;BME280;3370;47.712;9.082;2022-07-29T02:27:09;96870.66;;;17.97;90.21
6668;BME280;3370;47.712;9.082;2022-07-29T02:29:36;96874.19;;;17.96;90.47
6668;BME280;3370;47.712;9.082;2022-07-29T02:32:03;96873.25;;;17.86;91.22
6668;BME280;3370;47.712;9.082;2022-07-29T02:34:31;96868.72;;;17.76;92.02
6668;BME280;3370;47.712;9.082;2022-07-29T02:36:59;96873.25;;;17.86;91.18
6668;BME280;3370;47.712;9.082;2022-07-29T02:39:27;96868.72;;;17.76;91.41
6668;BME280;3370;47.712;9.082;2022-07-29T02:42:04;96870.63;;;17.74;91.38
6668;BME280;3370;47.712;9.082;2022-07-29T02:44:31;96871.09;;;17.68;91.76
6668;BME280;3370;47.712;9.082;2022-07-29T02:47:16;96877.00;;;17.81;90.82
6668;BME280;3370;47.712;9.082;2022-07-29T02:50:11;96871.69;;;17.72;92.16
6668;BME280;3370;47.712;9.082;2022-07-29T02:52:59;96864.81;;;17.82;91.16
6668;BME280;3370;47.712;9.082;2022-07-29T02:55:55;96860.69;;;17.79;91.26
6668;BME280;3370;47.712;9.082;2022-07-29T02:58:33;96861.88;;;17.75;91.89
6668;BME280;3370;47.712;9.082;2022-07-29T03:01:12;96868.03;;;17.86;91.10
6668;BME280;3370;47.712;9.082;2022-07-29T03:03:42;96877.75;;;17.95;90.39
6668;BME280;3370;47.712;9.082;2022-07-29T03:06:13;96870.88;;;17.82;89.71
6668;BME280;3370;47.712;9.082;2022-07-29T03:08:40;96876.78;;;17.85;90.76
6668;BME280;3370;47.712;9.082;2022-07-29T03:11:08;96878.66;;;17.60;92.24
6668;BME280;3370;47.712;9.082;2022-07-29T03:13:35;96884.19;;;17.44;94.02
6668;BME280;3370;47.712;9.082;2022-07-29T03:16:01;96882.88;;;17.38;94.80
6668;BME280;3370;47.712;9.082;2022-07-29T03:18:28;96878.84;;;17.34;95.38
6668;BME280;3370;47.712;9.082;2022-07-29T03:20:54;96881.34;;;17.36;95.09
6668;BME280;3370;47.712;9.082;2022-07-29T03:23:22;96877.81;;;17.37;94.75
6668;BME280;3370;47.712;9.082;2022-07-29T03:25:52;96883.00;;;17.37;94.99
6668;BME280;3370;47.712;9.082;2022-07-29T03:28:18;96872.47;;;17.38;94.58
6668;BME280;3370;47.712;9.082;2022-07-29T03:30:45;96867.06;;;17.41;94.01
6668;BME280;3370;47.712;9.082;2022-07-29T03:33:11;96870.63;;;17.52;93.11
6668;BME280;3370;47.712;9.082;2022-07-29T03:35:37;96871.44;;;17.52;93.56
6668;BME280;3370;47.712;9.082;2022-07-29T03:38:03;96865.06;;;17.56;93.97
6668;BME280;3370;47.712;9.082;2022-07-29T03:41:00;96860.91;;;17.76;92.17
6668;BME280;3370;47.712;9.082;2022-07-29T03:43:31;96859.50;;;17.72;92.90
6668;BME280;3370;47.712;9.082;2022-07-29T03:46:00;96865.19;;;17.66;93.81
6668;BME280;3370;47.712;9.082;2022-07-29T03:48:28;96865.41;;;17.74;92.04
6668;BME280;3370;47.712;9.082;2022-07-29T03:50:59;96863.53;;;17.65;92.34
6668;BME280;3370;47.712;9.082;2022-07-29T03:53:24;96868.50;;;17.57;94.02
6668;BME280;3370;47.712;9.082;2022-07-29T03:55:55;96866.94;;;17.66;94.44
6668;BME280;3370;47.712;9.082;2022-07-29T03:58:23;96875.13;;;17.61;94.47
6668;BME280;3370;47.712;9.082;2022-07-29T04:00:52;96874.53;;;17.69;94.47
6668;BME280;3370;47.712;9.082;2022-07-29T04:03:19;96879.59;;;17.81;92.35
6668;BME280;3370;47.712;9.082;2022-07-29T04:05:59;96874.53;;;17.69;93.77
6668;BME280;3370;47.712;9.082;2022-07-29T04:08:25;96881.28;;;17.71;94.63
6668;BME280;3370;47.712;9.082;2022-07-29T04:10:51;96869.22;;;17.70;95.20
6668;BME280;3370;47.712;9.082;2022-07-29T04:13:19;96869.91;;;17.83;93.41
6668;BME280;3370;47.712;9.082;2022-07-29T04:15:46;96891.69;;;17.94;93.53
6668;BME280;3370;47.712;9.082;2022-07-29T04:18:12;96884.97;;;17.91;93.56
6668;BME280;3370;47.712;9.082;2022-07-29T04:20:37;96893.53;;;17.69;94.80
6668;BME280;3370;47.712;9.082;2022-07-29T04:23:03;96899.44;;;17.60;95.44
6668;BME280;3370;47.712;9.082;2022-07-29T04:25:29;96895.31;;;17.57;95.84
6668;BME280;3370;47.712;9.082;2022-07-29T04:27:55;96897.69;;;17.60;95.18
6668;BME280;3370;47.712;9.082;2022-07-29T04:30:28;96900.88;;;17.64;94.84
6668;BME280;3370;47.712;9.082;2022-07-29T04:32:54;96898.41;;;17.62;95.53
6668;BME280;3370;47.712;9.082;2022-07-29T04:35:20;96896.41;;;17.66;95.13
6668;BME280;3370;47.712;9.082;2022-07-29T04:37:46;96903.94;;;17.69;94.98
6668;BME280;3370;47.712;9.082;2022-07-29T04:40:12;96909.50;;;17.76;94.44
6668;BME280;3370;47.712;9.082;2022-07-29T04:42:39;96911.28;;;17.75;95.19
6668;BME280;3370;47.712;9.082;2022-07-29T04:45:06;96905.13;;;17.76;94.87
6668;BME280;3370;47.712;9.082;2022-07-29T04:47:32;96907.16;;;17.84;94.78
6668;BME280;3370;47.712;9.082;2022-07-29T04:49:57;96907.41;;;17.92;93.75
6668;BME280;3370;47.712;9.082;2022-07-29T04:52:24;96904.22;;;17.89;93.20
6668;BME280;3370;47.712;9.082;2022-07-29T04:54:49;96901.28;;;17.93;93.88
6668;BME280;3370;47.712;9.082;2022-07-29T04:57:15;96907.31;;;17.94;94.12
6668;BME280;3370;47.712;9.082;2022-07-29T04:59:41;96904.00;;;17.92;95.19
6668;BME280;3370;47.712;9.082;2022-07-29T05:02:07;96905.19;;;17.99;95.34
6668;BME280;3370;47.712;9.082;2022-07-29T05:04:33;96907.56;;;18.02;93.95
6668;BME280;3370;47.712;9.082;2022-07-29T05:06:59;96901.63;;;18.00;94.07
6668;BME280;3370;47.712;9.082;2022-07-29T05:09:24;96898.31;;;17.98;94.35
6668;BME280;3370;47.712;9.082;2022-07-29T05:11:50;96898.56;;;18.06;94.03
6668;BME280;3370;47.712;9.082;2022-07-29T05:14:16;96902.06;;;18.16;93.32
6668;BME280;3370;47.712;9.082;2022-07-29T05:16:42;96899.47;;;18.28;93.27
6668;BME280;3370;47.712;9.082;2022-07-29T05:19:09;96899.81;;;18.34;92.57
6668;BME280;3370;47.712;9.082;2022-07-29T05:21:35;96894.59;;;18.34;93.20
6668;BME280;3370;47.712;9.082;2022-07-29T05:24:01;96903.97;;;18.37;93.75
6668;BME280;3370;47.712;9.082;2022-07-29T05:26:27;96904.66;;;18.39;93.69
6668;BME280;3370;47.712;9.082;2022-07-29T05:28:53;96902.56;;;18.33;93.85
6668;BME280;3370;47.712;9.082;2022-07-29T05:31:19;96911.53;;;18.29;94.19
6668;BME280;3370;47.712;9.082;2022-07-29T05:33:45;96904.56;;;18.18;95.79
6668;BME280;3370;47.712;9.082;2022-07-29T05:36:11;96906.72;;;18.24;96.52
6668;BME280;3370;47.712;9.082;2022-07-29T05:38:37;96906.91;;;18.32;96.12
6668;BME280;3370;47.712;9.082;2022-07-29T05:41:04;96901.31;;;18.48;96.26
6668;BME280;3370;47.712;9.082;2022-07-29T05:43:31;96913.41;;;18.49;96.13
6668;BME280;3370;47.712;9.082;2022-07-29T05:45:57;96906.78;;;18.45;95.88
6668;BME280;3370;47.712;9.082;2022-07-29T05:48:23;96896.13;;;18.48;96.44
6668;BME280;3370;47.712;9.082;2022-07-29T05:50:50;96898.09;;;18.56;96.42
6668;BME280;3370;47.712;9.082;2022-07-29T05:53:15;96900.13;;;18.64;96.40
6668;BME280;3370;47.712;9.082;2022-07-29T05:55:42;96896.78;;;18.73;96.13
6668;BME280;3370;47.712;9.082;2022-07-29T05:58:08;96906.38;;;18.84;95.76
6668;BME280;3370;47.712;9.082;2022-07-29T06:00:34;96897.91;;;18.91;95.22
6668;BME280;3370;47.712;9.082;2022-07-29T06:03:00;96904.97;;;19.01;95.33
6668;BME280;3370;47.712;9.082;2022-07-29T06:05:26;96908.97;;;19.05;94.11
6668;BME280;3370;47.712;9.082;2022-07-29T06:07:51;96908.75;;;19.08;93.90
6668;BME280;3370;47.712;9.082;2022-07-29T06:10:20;96913.84;;;19.09;94.46
6668;BME280;3370;47.712;9.082;2022-07-29T06:12:46;96912.25;;;19.18;93.25
6668;BME280;3370;47.712;9.082;2022-07-29T06:15:12;96913.44;;;19.14;93.18
6668;BME280;3370;47.712;9.082;2022-07-29T06:17:37;96910.13;;;19.12;93.81
6668;BME280;3370;47.712;9.082;2022-07-29T06:20:04;96920.81;;;19.09;95.70
6668;BME280;3370;47.712;9.082;2022-07-29T06:22:30;96920.09;;;19.07;96.55
6668;BME280;3370;47.712;9.082;2022-07-29T06:24:56;96933.34;;;19.15;96.50
6668;BME280;3370;47.712;9.082;2022-07-29T06:27:22;96932.66;;;19.13;96.66
6668;BME280;3370;47.712;9.082;2022-07-29T06:29:48;96930.16;;;19.11;96.82
6668;BME280;3370;47.712;9.082;2022-07-29T06:32:13;96925.78;;;19.12;96.93
6668;BME280;3370;47.712;9.082;2022-07-29T06:34:39;96929.28;;;19.22;96.48
6668;BME280;3370;47.712;9.082;2022-07-29T06:37:08;96936.34;;;19.31;96.48
6668;BME280;3370;47.712;9.082;2022-07-29T06:39:37;96939.97;;;19.40;95.25
6668;BME280;3370;47.712;9.082;2022-07-29T06:42:06;96949.91;;;19.46;94.38
6668;BME280;3370;47.712;9.082;2022-07-29T06:44:32;96952.72;;;19.54;92.92
6668;BME280;3370;47.712;9.082;2022-07-29T06:47:02;96948.56;;;19.52;92.94
6668;BME280;3370;47.712;9.082;2022-07-29T06:49:28;96940.28;;;19.47;92.34
6668;BME280;3370;47.712;9.082;2022-07-29T06:51:54;96947.16;;;19.48;92.61
6668;BME280;3370;47.712;9.082;2022-07-29T06:54:20;96942.00;;;19.58;93.21
6668;BME280;3370;47.712;9.082;2022-07-29T06:56:47;96944.94;;;19.64;93.52
6668;BME280;3370;47.712;9.082;2022-07-29T06:59:13;96939.41;;;19.79;93.03
6668;BME280;3370;47.712;9.082;2022-07-29T07:01:42;96940.44;;;19.87;92.25
6668;BME280;3370;47.712;9.082;2022-07-29T07:04:09;96944.63;;;20.00;91.64
6668;BME280;3370;47.712;9.082;2022-07-29T07:06:36;96946.47;;;20.19;91.10
6668;BME280;3370;47.712;9.082;2022-07-29T07:09:02;96964.19;;;20.25;89.06
6668;BME280;3370;47.712;9.082;2022-07-29T07:11:28;96973.97;;;20.23;87.67
6668;BME280;3370;47.712;9.082;2022-07-29T07:13:54;96971.22;;;20.24;87.86
6668;BME280;3370;47.712;9.082;2022-07-29T07:16:20;96983.19;;;20.27;88.35
6668;BME280;3370;47.712;9.082;2022-07-29T07:18:46;96975.09;;;20.30;88.84
6668;BME280;3370;47.712;9.082;2022-07-29T07:21:12;96983.34;;;20.35;88.95
6668;BME280;3370;47.712;9.082;2022-07-29T07:23:38;96978.13;;;20.35;90.29
6668;BME280;3370;47.712;9.082;2022-07-29T07:26:04;96971.28;;;20.34;90.03
6668;BME280;3370;47.712;9.082;2022-07-29T07:28:31;96983.34;;;20.35;88.84
6668;BME280;3370;47.712;9.082;2022-07-29T07:30:57;96984.69;;;20.20;88.93
6668;BME280;3370;47.712;9.082;2022-07-29T07:33:23;96991.59;;;20.30;88.17
6668;BME280;3370;47.712;9.082;2022-07-29T07:35:50;96985.47;;;20.10;89.63
6668;BME280;3370;47.712;9.082;2022-07-29T07:38:16;96987.66;;;20.15;88.79
6668;BME280;3370;47.712;9.082;2022-07-29T07:40:41;96990.16;;;20.17;89.69
6668;BME280;3370;47.712;9.082;2022-07-29T07:43:07;96990.69;;;20.10;90.94
6668;BME280;3370;47.712;9.082;2022-07-29T07:45:33;96996.41;;;20.35;90.40
6668;BME280;3370;47.712;9.082;2022-07-29T07:47:59;96983.25;;;20.46;88.58
6668;BME280;3370;47.712;9.082;2022-07-29T07:50:25;96983.75;;;20.61;87.09
6668;BME280;3370;47.712;9.082;2022-07-29T07:52:54;96977.69;;;20.61;82.52
6668;BME280;3370;47.712;9.082;2022-07-29T07:55:23;96980.47;;;20.69;81.95
6668;BME280;3370;47.712;9.082;2022-07-29T07:57:49;96983.22;;;20.77;84.51
6668;BME280;3370;47.712;9.082;2022-07-29T08:00:16;96986.28;;;20.82;79.34
6668;BME280;3370;47.712;9.082;2022-07-29T08:02:42;96986.56;;;20.89;78.93
6668;BME280;3370;47.712;9.082;2022-07-29T08:05:09;96989.59;;;21.04;78.75
6668;BME280;3370;47.712;9.082;2022-07-29T08:07:36;96985.91;;;21.16;76.14
6668;BME280;3370;47.712;9.082;2022-07-29T08:10:03;96984.81;;;21.29;78.15
6668;BME280;3370;47.712;9.082;2022-07-29T08:12:29;96985.75;;;21.37;71.87
6668;BME280;3370;47.712;9.082;2022-07-29T08:14:54;96986.88;;;21.35;74.72
6668;BME280;3370;47.712;9.082;2022-07-29T08:17:20;96981.34;;;21.28;73.92
6668;BME280;3370;47.712;9.082;2022-07-29T08:19:46;96985.13;;;21.45;73.09
6668;BME280;3370;47.712;9.082;2022-07-29T08:22:14;96980.81;;;21.63;71.67
6668;BME280;3370;47.712;9.082;2022-07-29T08:24:40;96980.81;;;21.63;71.10
6668;BME280;3370;47.712;9.082;2022-07-29T08:27:10;96980.78;;;21.73;72.72
6668;BME280;3370;47.712;9.082;2022-07-29T08:29:36;96984.94;;;21.76;70.01
6668;BME280;3370;47.712;9.082;2022-07-29T08:32:03;96981.06;;;21.80;71.33
6668;BME280;3370;47.712;9.082;2022-07-29T08:34:29;96981.06;;;21.80;70.58
6668;BME280;3370;47.712;9.082;2022-07-29T08:36:56;96972.25;;;21.81;69.15
6668;BME280;3370;47.712;9.082;2022-07-29T08:39:22;96975.97;;;21.78;70.86
6668;BME280;3370;47.712;9.082;2022-07-29T08:41:49;96988.50;;;21.75;71.99
6668;BME280;3370;47.712;9.082;2022-07-29T08:44:19;96983.41;;;21.73;71.88
6668;BME280;3370;47.712;9.082;2022-07-29T08:46:48;96988.25;;;21.78;70.48
6668;BME280;3370;47.712;9.082;2022-07-29T08:49:15;96996.63;;;21.72;69.88
6668;BME280;3370;47.712;9.082;2022-07-29T08:51:43;96996.25;;;21.67;72.18
6668;BME280;3370;47.712;9.082;2022-07-29T08:54:09;97010.03;;;21.69;73.54
6668;BME280;3370;47.712;9.082;2022-07-29T08:56:36;97010.28;;;21.66;73.79
6668;BME280;3370;47.712;9.082;2022-07-29T08:59:05;97007.13;;;21.62;74.69
6668;BME280;3370;47.712;9.082;2022-07-29T09:01:33;97013.84;;;21.64;75.83
6668;BME280;3370;47.712;9.082;2022-07-29T09:04:01;97011.06;;;21.17;76.44
6668;BME280;3370;47.712;9.082;2022-07-29T09:06:34;97022.25;;;21.29;78.13
6668;BME280;3370;47.712;9.082;2022-07-29T09:09:02;97025.16;;;21.36;76.68
6668;BME280;3370;47.712;9.082;2022-07-29T09:11:31;97022.41;;;21.47;77.00
6668;BME280;3370;47.712;9.082;2022-07-29T09:13:57;97019.94;;;21.55;75.66
6668;BME280;3370;47.712;9.082;2022-07-29T09:16:23;97034.13;;;21.72;77.32
6668;BME280;3370;47.712;9.082;2022-07-29T09:18:49;97031.63;;;21.71;74.74
6668;BME280;3370;47.712;9.082;2022-07-29T09:21:17;97031.75;;;21.79;75.46
6668;BME280;3370;47.712;9.082;2022-07-29T09:24:07;97025.44;;;21.62;75.00
6668;BME280;3370;47.712;9.082;2022-07-29T09:26:43;97019.09;;;21.64;75.57
6668;BME280;3370;47.712;9.082;2022-07-29T09:29:17;97019.66;;;21.58;76.26
6668;BME280;3370;47.712;9.082;2022-07-29T09:31:47;97019.38;;;21.32;72.39
6668;BME280;3370;47.712;9.082;2022-07-29T09:34:25;97018.81;;;21.48;71.21
6668;BME280;3370;47.712;9.082;2022-07-29T09:36:53;97026.25;;;21.43;72.98
6668;BME280;3370;47.712;9.082;2022-07-29T09:39:33;97023.19;;;21.18;73.09
6668;BME280;3370;47.712;9.082;2022-07-29T09:42:03;97020.56;;;21.28;69.52
6668;BME280;3370;47.712;9.082;2022-07-29T09:44:47;97027.78;;;21.55;71.65
6668;BME280;3370;47.712;9.082;2022-07-29T09:47:18;97012.78;;;21.57;68.28
6668;BME280;3370;47.712;9.082;2022-07-29T09:49:58;97013.88;;;21.45;69.76
6668;BME280;3370;47.712;9.082;2022-07-29T09:52:26;97012.47;;;21.21;66.20
6668;BME280;3370;47.712;9.082;2022-07-29T09:54:53;97020.03;;;21.15;67.28
6668;BME280;3370;47.712;9.082;2022-07-29T09:57:29;97026.50;;;21.11;70.05
6668;BME280;3370;47.712;9.082;2022-07-29T10:00:19;97036.41;;;21.17;72.99
6668;BME280;3370;47.712;9.082;2022-07-29T10:02:48;97025.41;;;21.23;71.64
6668;BME280;3370;47.712;9.082;2022-07-29T10:05:26;97016.19;;;21.29;72.42
6668;BME280;3370;47.712;9.082;2022-07-29T10:07:57;97017.31;;;21.36;69.55
6668;BME280;3370;47.712;9.082;2022-07-29T10:10:44;97005.47;;;21.51;68.60
6668;BME280;3370;47.712;9.082;2022-07-29T10:13:13;97002.28;;;21.77;69.82
6668;BME280;3370;47.712;9.082;2022-07-29T10:15:42;97001.13;;;22.09;68.91
6668;BME280;3370;47.712;9.082;2022-07-29T10:18:11;96997.06;;;22.24;67.52
6668;BME280;3370;47.712;9.082;2022-07-29T10:20:38;97003.41;;;22.21;64.98
6668;BME280;3370;47.712;9.082;2022-07-29T10:23:05;96998.63;;;22.27;65.33
6668;BME280;3370;47.712;9.082;2022-07-29T10:25:31;97007.69;;;22.32;65.20
6668;BME280;3370;47.712;9.082;2022-07-29T10:27:57;97001.47;;;22.33;64.82
6668;BME280;3370;47.712;9.082;2022-07-29T10:30:25;96991.13;;;22.22;67.36
6668;BME280;3370;47.712;9.082;2022-07-29T10:39:19;96990.34;;;22.59;62.12
6668;BME280;3370;47.712;9.082;2022-07-29T10:42:11;96989.47;;;22.68;61.91
6668;BME280;3370;47.712;9.082;2022-07-29T10:44:40;96987.00;;;22.57;63.10
6668;BME280;3370;47.712;9.082;2022-07-29T10:47:07;96986.44;;;22.35;64.34
6668;BME280;3370;47.712;9.082;2022-07-29T10:49:33;96969.25;;;22.51;65.47
6668;BME280;3370;47.712;9.082;2022-07-29T10:52:03;96978.88;;;22.60;63.47
6668;BME280;3370;47.712;9.082;2022-07-29T10:54:45;96969.13;;;22.52;59.70
6668;BME280;3370;47.712;9.082;2022-07-29T10:59:44;96976.75;;;22.73;62.45
6668;BME280;3370;47.712;9.082;2022-07-29T11:05:02;96972.56;;;22.53;63.75
6668;BME280;3370;47.712;9.082;2022-07-29T11:07:29;96970.75;;;22.81;62.67
6668;BME280;3370;47.712;9.082;2022-07-29T11:15:27;96978.59;;;23.45;57.30
6668;BME280;3370;47.712;9.082;2022-07-29T11:20:50;96969.47;;;23.75;58.98
6668;BME280;3370;47.712;9.082;2022-07-29T11:23:24;96970.06;;;23.69;55.18
6668;BME280;3370;47.712;9.082;2022-07-29T11:26:20;96957.81;;;23.96;56.44
6668;BME280;3370;47.712;9.082;2022-07-29T11:31:46;96962.78;;;24.76;53.00
6668;BME280;3370;47.712;9.082;2022-07-29T11:34:25;96950.06;;;25.38;51.92
6668;BME280;3370;47.712;9.082;2022-07-29T11:39:47;96957.38;;;24.85;50.74
6668;BME280;3370;47.712;9.082;2022-07-29T11:45:02;96964.53;;;25.59;51.42
6668;BME280;3370;47.712;9.082;2022-07-29T11:47:32;96961.53;;;26.03;50.96
6668;BME280;3370;47.712;9.082;2022-07-29T11:50:00;96948.72;;;26.39;51.42
6668;BME280;3370;47.712;9.082;2022-07-29T11:52:42;96947.47;;;26.67;47.75
6668;BME280;3370;47.712;9.082;2022-07-29T11:55:13;96946.47;;;26.76;49.04
6668;BME280;3370;47.712;9.082;2022-07-29T11:57:48;96950.38;;;27.34;47.38
6668;BME280;3370;47.712;9.082;2022-07-29T12:00:42;96950.56;;;27.25;46.84
6668;BME280;3370;47.712;9.082;2022-07-29T12:03:12;96948.09;;;26.77;48.57
6668;BME280;3370;47.712;9.082;2022-07-29T12:05:48;96951.56;;;27.01;48.43
6668;BME280;3370;47.712;9.082;2022-07-29T12:08:21;96947.09;;;27.32;46.67
6668;BME280;3370;47.712;9.082;2022-07-29T12:10:49;96943.59;;;27.70;47.25
6668;BME280;3370;47.712;9.082;2022-07-29T12:13:19;96944.44;;;27.70;45.10
6668;BME280;3370;47.712;9.082;2022-07-29T12:15:57;96944.38;;;27.41;45.82
6668;BME280;3370;47.712;9.082;2022-07-29T12:18:24;96948.25;;;27.07;48.16
6668;BME280;3370;47.712;9.082;2022-07-29T12:20:59;96948.50;;;27.12;51.52
6668;BME280;3370;47.712;9.082;2022-07-29T12:23:26;96946.06;;;26.87;50.47
6668;BME280;3370;47.712;9.082;2022-07-29T12:25:52;96942.56;;;26.64;51.76
6668;BME280;3370;47.712;9.082;2022-07-29T12:28:18;96941.22;;;26.59;52.62
6668;BME280;3370;47.712;9.082;2022-07-29T12:30:48;96936.25;;;26.73;51.37
6668;BME280;3370;47.712;9.082;2022-07-29T12:33:26;96935.94;;;26.59;51.79
6668;BME280;3370;47.712;9.082;2022-07-29T12:36:01;96930.00;;;26.57;50.50
6668;BME280;3370;47.712;9.082;2022-07-29T12:38:28;96927.69;;;26.71;50.80
6668;BME280;3370;47.712;9.082;2022-07-29T12:40:54;96930.22;;;26.87;50.10
6668;BME280;3370;47.712;9.082;2022-07-29T12:43:23;96927.59;;;27.10;50.46
6668;BME280;3370;47.712;9.082;2022-07-29T12:45:52;96929.16;;;26.73;50.33
6668;BME280;3370;47.712;9.082;2022-07-29T12:48:37;96926.09;;;26.62;50.24
6668;BME280;3370;47.712;9.082;2022-07-29T12:51:05;96921.88;;;26.75;51.97
6668;BME280;3370;47.712;9.082;2022-07-29T12:53:32;96929.44;;;26.78;54.06
6668;BME280;3370;47.712;9.082;2022-07-29T12:55:59;96925.84;;;26.40;54.02
6668;BME280;3370;47.712;9.082;2022-07-29T12:58:31;96927.84;;;26.69;55.67
6668;BME280;3370;47.712;9.082;2022-07-29T13:01:06;96923.78;;;26.50;54.42
6668;BME280;3370;47.712;9.082;2022-07-29T13:03:55;96930.00;;;26.57;53.53
6668;BME280;3370;47.712;9.082;2022-07-29T13:09:20;96930.47;;;26.38;53.65
6668;BME280;3370;47.712;9.082;2022-07-29T13:11:51;96923.91;;;26.26;53.52
6668;BME280;3370;47.712;9.082;2022-07-29T13:14:35;96932.72;;;26.41;56.00
6668;BME280;3370;47.712;9.082;2022-07-29T13:17:28;96937.47;;;26.14;53.48
6668;BME280;3370;47.712;9.082;2022-07-29T13:20:07;96932.22;;;26.06;55.02
6668;BME280;3370;47.712;9.082;2022-07-29T13:22:47;96932.88;;;26.08;54.68
6668;BME280;3370;47.712;9.082;2022-07-29T13:25:14;96943.25;;;26.10;54.69
6668;BME280;3370;47.712;9.082;2022-07-29T13:27:39;96940.13;;;25.81;56.44
6668;BME280;3370;47.712;9.082;2022-07-29T13:30:08;96933.56;;;25.86;57.98
6668;BME280;3370;47.712;9.082;2022-07-29T13:32:35;96934.22;;;25.96;57.59
6668;BME280;3370;47.712;9.082;2022-07-29T13:35:05;96934.69;;;26.08;55.06
6668;BME280;3370;47.712;9.082;2022-07-29T13:37:34;96931.66;;;26.27;55.90
6668;BME280;3370;47.712;9.082;2022-07-29T13:40:01;96937.03;;;26.34;56.38
6668;BME280;3370;47.712;9.082;2022-07-29T13:42:28;96928.41;;;26.09;56.44
6668;BME280;3370;47.712;9.082;2022-07-29T13:44:54;96934.06;;;25.89;55.10
6668;BME280;3370;47.712;9.082;2022-07-29T13:47:21;96936.34;;;26.00;55.68
6668;BME280;3370;47.712;9.082;2022-07-29T13:49:48;96937.88;;;25.54;52.60
6668;BME280;3370;47.712;9.082;2022-07-29T13:52:14;96942.81;;;25.49;53.01
6668;BME280;3370;47.712;9.082;2022-07-29T13:54:41;96943.16;;;25.37;51.90
6668;BME280;3370;47.712;9.082;2022-07-29T13:57:08;96933.94;;;25.33;50.55
6668;BME280;3370;47.712;9.082;2022-07-29T13:59:34;96941.47;;;25.12;52.02
6668;BME280;3370;47.712;9.082;2022-07-29T14:02:00;96941.47;;;24.95;53.58
6668;BME280;3370;47.712;9.082;2022-07-29T14:04:26;96945.38;;;24.83;52.27
6668;BME280;3370;47.712;9.082;2022-07-29T14:06:51;96949.94;;;24.64;53.66
6668;BME280;3370;47.712;9.082;2022-07-29T14:09:18;96952.41;;;24.66;54.64
6668;BME280;3370;47.712;9.082;2022-07-29T14:11:44;96957.28;;;24.53;54.16
6668;BME280;3370;47.712;9.082;2022-07-29T14:14:11;96959.81;;;24.36;52.30